createdAt,value
2022-09-26T00:00:43.113Z,100059.12
2022-09-26T00:03:11.098Z,100043.91
2022-09-26T00:05:38.938Z,100055.47
2022-09-26T00:08:07.361Z,100058.13
2022-09-26T00:10:35.025Z,100057.13
2022-09-26T00:13:01.794Z,100062.47
2022-09-26T00:15:28.474Z,100059.78
2022-09-26T00:17:55.458Z,100054.44
2022-09-26T00:20:22.107Z,100056.09
2022-09-26T00:22:48.769Z,100064.94
2022-09-26T00:25:15.864Z,100065.75
2022-09-26T00:27:42.446Z,100065.75
2022-09-26T00:30:09.655Z,100065.75
2022-09-26T00:32:36.680Z,100062.25
2022-09-26T00:35:03.531Z,100068.22
2022-09-26T00:37:30.308Z,100064.72
2022-09-26T00:39:57.243Z,100051.38
2022-09-26T00:42:24.813Z,100033.03
2022-09-26T00:44:56.799Z,100033.87
2022-09-26T00:47:41.303Z,100046.44
2022-09-26T00:50:24.906Z,100042.12
2022-09-26T00:52:58.796Z,100040.22
2022-09-26T00:55:30.210Z,100036.94
2022-09-26T00:58:04.553Z,100041.50
2022-09-26T01:00:31.807Z,100038.81
2022-09-26T01:02:58.992Z,100035.31
2022-09-26T01:05:26.093Z,100034.50
2022-09-26T01:07:55.837Z,100037.16
2022-09-26T01:10:24.600Z,100039.03
2022-09-26T01:12:52.434Z,100039.03
2022-09-26T01:15:19.200Z,100031.22
2022-09-26T01:17:48.580Z,100028.75
2022-09-26T01:20:30.862Z,100035.72
2022-09-26T01:23:09.951Z,100032.84
2022-09-26T01:25:48.710Z,100031.22
2022-09-26T01:28:34.267Z,100026.69
2022-09-26T01:31:12.823Z,100022.34
2022-09-26T01:33:56.521Z,100030.37
2022-09-26T01:36:30.993Z,100031.22
2022-09-26T01:39:08.508Z,100029.12
2022-09-26T01:41:48.242Z,100037.37
2022-09-26T01:44:30.982Z,100035.50
2022-09-26T01:47:15.057Z,100032.84
2022-09-26T01:50:01.063Z,100037.97
2022-09-26T01:52:37.222Z,100043.13
2022-09-26T01:55:32.364Z,100026.87
2022-09-26T01:58:10.015Z,100035.75
2022-09-26T02:00:39.861Z,100033.09
2022-09-26T02:03:13.687Z,100026.87
2022-09-26T02:06:02.514Z,100030.63
2022-09-26T02:08:44.310Z,100028.56
2022-09-26T02:11:17.326Z,100025.03
2022-09-26T02:13:55.759Z,100033.09
2022-09-26T02:16:36.382Z,100030.41
2022-09-26T02:19:10.311Z,100028.56
2022-09-26T02:21:37.456Z,100012.72
2022-09-26T02:24:04.494Z,100012.91
2022-09-26T02:26:33.709Z,100016.81
2022-09-26T02:29:01.702Z,100011.25
2022-09-26T02:31:34.282Z,100026.50
2022-09-26T02:34:03.850Z,100026.69
2022-09-26T02:36:33.671Z,100024.63
2022-09-26T02:39:01.726Z,100017.00
2022-09-26T02:42:28.363Z,100021.75
2022-09-26T02:45:50.403Z,100028.75
2022-09-26T02:48:38.847Z,100007.72
2022-09-26T02:51:30.555Z,100016.00
2022-09-26T02:54:22.772Z,100009.19
2022-09-26T02:57:09.500Z,100003.19
2022-09-26T02:59:59.200Z,100021.28
2022-09-26T03:02:34.000Z,100016.13
2022-09-26T03:05:20.561Z,100005.84
2022-09-26T03:07:54.302Z,100010.56
2022-09-26T03:10:21.660Z,100003.78
2022-09-26T03:12:50.978Z,100000.69
2022-09-26T03:15:19.664Z,99996.97
2022-09-26T03:17:54.078Z,99990.22
2022-09-26T03:20:23.053Z,99992.69
2022-09-26T03:22:51.083Z,99985.25
2022-09-26T03:25:24.133Z,99978.47
2022-09-26T03:27:53.947Z,99978.84
2022-09-26T03:30:22.113Z,99989.12
2022-09-26T03:32:50.644Z,99980.50
2022-09-26T03:35:17.740Z,99984.00
2022-09-26T03:37:45.604Z,99990.34
2022-09-26T03:40:12.766Z,99982.09
2022-09-26T03:42:41.902Z,99989.53
2022-09-26T03:45:10.941Z,99987.06
2022-09-26T03:47:42.027Z,99987.22
2022-09-26T03:50:09.544Z,99985.37
2022-09-26T03:52:36.632Z,99979.63
2022-09-26T03:55:04.592Z,99966.00
2022-09-26T03:57:31.578Z,99982.09
2022-09-26T03:59:59.262Z,99997.44
2022-09-26T04:02:27.225Z,99993.16
2022-09-26T04:04:55.113Z,100004.62
2022-09-26T04:07:22.118Z,100008.31
2022-09-26T04:09:48.822Z,99992.50
2022-09-26T04:12:16.486Z,99997.44
2022-09-26T04:14:43.513Z,99988.63
2022-09-26T04:17:10.527Z,99994.78
2022-09-26T04:19:37.988Z,99991.69
2022-09-26T04:22:05.902Z,99983.47
2022-09-26T04:24:32.971Z,99986.97
2022-09-26T04:27:00.818Z,99971.34
2022-09-26T04:29:29.168Z,99970.53
2022-09-26T04:31:56.438Z,99972.19
2022-09-26T04:34:27.292Z,99974.03
2022-09-26T04:36:54.723Z,99964.97
2022-09-26T04:39:21.521Z,99978.53
2022-09-26T04:41:48.584Z,99987.34
2022-09-26T04:44:15.250Z,99984.06
2022-09-26T04:46:42.197Z,99987.34
2022-09-26T04:49:09.630Z,99982.03
2022-09-26T04:51:37.168Z,99972.78
2022-09-26T04:54:04.295Z,99969.47
2022-09-26T04:56:32.266Z,99967.66
2022-09-26T04:58:59.454Z,99979.81
2022-09-26T05:01:27.199Z,99978.16
2022-09-26T05:03:57.655Z,99973.00
2022-09-26T05:06:25.167Z,99984.94
2022-09-26T05:08:53.506Z,99981.25
2022-09-26T05:11:21.572Z,99982.91
2022-09-26T05:13:53.560Z,99982.91
2022-09-26T05:16:22.551Z,99971.22
2022-09-26T05:18:53.133Z,99984.19
2022-09-26T05:21:19.917Z,99987.47
2022-09-26T05:24:05.530Z,99981.94
2022-09-26T05:26:40.373Z,99981.75
2022-09-26T05:29:09.029Z,99988.75
2022-09-26T05:31:39.453Z,99973.13
2022-09-26T05:34:08.663Z,99980.75
2022-09-26T05:36:36.338Z,99969.66
2022-09-26T05:39:26.750Z,99984.66
2022-09-26T05:41:54.623Z,99979.13
2022-09-26T05:44:21.273Z,99977.47
2022-09-26T05:46:48.552Z,99956.31
2022-09-26T05:49:15.744Z,99956.72
2022-09-26T05:51:43.186Z,99960.41
2022-09-26T05:54:10.523Z,99962.87
2022-09-26T05:56:37.888Z,99968.22
2022-09-26T05:59:06.898Z,99960.22
2022-09-26T06:01:46.890Z,99961.06
2022-09-26T06:04:15.417Z,99967.00
2022-09-26T06:06:46.190Z,99954.87
2022-09-26T06:09:15.153Z,99965.41
2022-09-26T06:11:43.718Z,99967.03
2022-09-26T06:14:10.913Z,99970.53
2022-09-26T06:16:38.012Z,99967.88
2022-09-26T06:19:05.158Z,99975.69
2022-09-26T06:21:31.884Z,99966.59
2022-09-26T06:23:59.174Z,99977.34
2022-09-26T06:26:28.946Z,99967.88
2022-09-26T06:28:58.230Z,99976.50
2022-09-26T06:31:26.876Z,99977.78
2022-09-26T06:33:58.526Z,99978.63
2022-09-26T06:36:26.414Z,99982.53
2022-09-26T06:38:54.985Z,99973.28
2022-09-26T06:41:22.222Z,99981.09
2022-09-26T06:43:50.017Z,99977.44
2022-09-26T06:46:17.957Z,99967.75
2022-09-26T06:48:46.663Z,99961.63
2022-09-26T06:51:15.270Z,99956.09
2022-09-26T06:53:44.613Z,99963.50
2022-09-26T06:56:13.348Z,99964.28
2022-09-26T06:58:40.660Z,99981.16
2022-09-26T07:01:08.579Z,99986.31
2022-09-26T07:03:42.924Z,99991.66
2022-09-26T07:06:14.005Z,99985.28
2022-09-26T07:09:01.630Z,99994.31
2022-09-26T07:11:42.136Z,99994.31
2022-09-26T07:14:18.257Z,99985.28
2022-09-26T07:16:48.569Z,99977.09
2022-09-26T07:19:17.002Z,99990.66
2022-09-26T07:21:44.902Z,99971.34
2022-09-26T07:24:15.016Z,99972.19
2022-09-26T07:26:42.475Z,99967.88
2022-09-26T07:29:09.966Z,99985.81
2022-09-26T07:31:37.195Z,99978.63
2022-09-26T07:34:08.935Z,99969.97
2022-09-26T07:36:36.323Z,99976.78
2022-09-26T07:39:04.028Z,99964.47
2022-09-26T07:41:31.164Z,99965.47
2022-09-26T07:47:04.603Z,99967.12
2022-09-26T07:49:50.568Z,99962.19
2022-09-26T07:52:22.300Z,99960.56
2022-09-26T07:54:50.546Z,99953.81
2022-09-26T07:57:19.545Z,99962.00
2022-09-26T07:59:50.418Z,99964.06
2022-09-26T08:02:23.595Z,99961.59
2022-09-26T08:04:58.804Z,99965.06
2022-09-26T08:07:27.506Z,99962.81
2022-09-26T08:09:56.907Z,99953.13
2022-09-26T08:12:27.030Z,99966.94
2022-09-26T08:14:56.300Z,99968.16
2022-09-26T08:17:24.131Z,99966.50
2022-09-26T08:19:51.732Z,99966.50
2022-09-26T08:22:19.134Z,99963.63
2022-09-26T08:24:50.901Z,99966.09
2022-09-26T08:27:18.370Z,99960.34
2022-09-26T08:29:49.528Z,99959.94
2022-09-26T08:32:17.542Z,99953.56
2022-09-26T08:34:44.969Z,99958.50
2022-09-26T08:37:29.498Z,99953.81
2022-09-26T08:40:13.096Z,99947.00
2022-09-26T08:42:53.687Z,99947.22
2022-09-26T08:45:56.424Z,99950.31
2022-09-26T08:48:31.441Z,99950.28
2022-09-26T08:51:29.383Z,99946.41
2022-09-26T08:54:24.835Z,99944.53
2022-09-26T08:57:15.168Z,99944.78
2022-09-26T08:59:46.058Z,99946.81
2022-09-26T09:02:44.315Z,99949.25
2022-09-26T09:05:23.660Z,99940.56
2022-09-26T09:07:54.632Z,99937.41
2022-09-26T09:10:51.938Z,99932.22
2022-09-26T09:13:37.601Z,99935.06
2022-09-26T09:16:23.720Z,99938.72
2022-09-26T09:19:11.629Z,99924.25
2022-09-26T09:21:41.822Z,99934.91
2022-09-26T09:24:37.218Z,99927.44
2022-09-26T09:30:22.090Z,99934.78
2022-09-26T09:33:03.649Z,99933.53
2022-09-26T09:35:41.539Z,99940.91
2022-09-26T09:38:16.261Z,99944.62
2022-09-26T09:40:50.927Z,99937.66
2022-09-26T09:43:35.604Z,99931.91
2022-09-26T09:46:06.004Z,99933.16
2022-09-26T09:48:33.387Z,99938.38
2022-09-26T09:51:16.850Z,99944.44
2022-09-26T09:53:50.603Z,99937.00
2022-09-26T09:56:46.715Z,99931.09
2022-09-26T09:59:47.235Z,99933.78
2022-09-26T10:02:32.307Z,99925.75
2022-09-26T10:05:18.553Z,99930.25
2022-09-26T10:07:47.621Z,99916.47
2022-09-26T10:10:21.844Z,99920.59
2022-09-26T10:12:52.783Z,99925.09
2022-09-26T10:15:26.270Z,99919.53
2022-09-26T10:18:23.962Z,99915.56
2022-09-26T10:20:53.997Z,99898.69
2022-09-26T10:23:31.135Z,99907.66
2022-09-26T10:26:04.627Z,99900.63
2022-09-26T10:28:36.880Z,99896.06
2022-09-26T10:31:10.720Z,99899.72
2022-09-26T10:33:45.320Z,99890.41
2022-09-26T10:36:27.967Z,99886.00
2022-09-26T10:39:21.307Z,99884.88
2022-09-26T10:41:58.003Z,99883.78
2022-09-26T10:44:33.673Z,99879.16
2022-09-26T10:47:13.136Z,99872.47
2022-09-26T10:49:51.271Z,99873.69
2022-09-26T10:52:36.521Z,99874.44
2022-09-26T10:55:15.418Z,99869.97
2022-09-26T10:57:48.029Z,99858.91
2022-09-26T11:00:37.172Z,99871.87
2022-09-26T11:03:07.531Z,99873.47
2022-09-26T11:05:57.326Z,99859.06
2022-09-26T11:08:30.371Z,99871.59
2022-09-26T11:11:00.548Z,99847.28
2022-09-26T11:13:50.140Z,99856.97
2022-09-26T11:16:20.275Z,99836.69
2022-09-26T11:19:01.684Z,99850.84
2022-09-26T11:21:47.980Z,99841.13
2022-09-26T11:24:37.432Z,99841.25
2022-09-26T11:27:31.185Z,99845.81
2022-09-26T11:30:09.380Z,99839.88
2022-09-26T11:32:42.869Z,99841.13
2022-09-26T11:35:16.519Z,99836.81
2022-09-26T11:37:55.197Z,99817.75
2022-09-26T11:40:50.522Z,99832.63
2022-09-26T11:43:36.182Z,99846.44
2022-09-26T11:46:15.242Z,99841.69
2022-09-26T11:48:49.129Z,99830.25
2022-09-26T11:51:40.140Z,99845.22
2022-09-26T11:54:45.629Z,99838.59
2022-09-26T11:57:28.079Z,99842.19
2022-09-26T12:00:02.468Z,99842.69
2022-09-26T12:02:58.367Z,99836.78
2022-09-26T12:05:44.329Z,99836.22
2022-09-26T12:08:42.039Z,99830.63
2022-09-26T12:11:28.078Z,99832.06
2022-09-26T12:14:15.917Z,99836.94
2022-09-26T12:16:58.777Z,99821.75
2022-09-26T12:19:32.065Z,99831.69
2022-09-26T12:22:28.480Z,99825.97
2022-09-26T12:25:00.637Z,99829.12
2022-09-26T12:27:36.157Z,99827.63
2022-09-26T12:30:10.784Z,99824.69
2022-09-26T12:33:00.947Z,99822.66
2022-09-26T12:35:55.816Z,99814.50
2022-09-26T12:38:32.811Z,99828.72
2022-09-26T12:41:23.054Z,99823.13
2022-09-26T12:44:01.875Z,99823.13
2022-09-26T12:46:37.596Z,99811.78
2022-09-26T12:49:32.083Z,99812.59
2022-09-26T12:52:27.277Z,99800.78
2022-09-26T12:55:00.371Z,99803.22
2022-09-26T12:57:32.948Z,99801.34
2022-09-26T13:00:31.351Z,99797.13
2022-09-26T13:03:28.748Z,99798.28
2022-09-26T13:06:33.517Z,99804.00
2022-09-26T13:09:45.759Z,99808.56
2022-09-26T13:12:22.918Z,99801.78
2022-09-26T13:15:00.905Z,99797.84
2022-09-26T13:17:34.644Z,99806.25
2022-09-26T13:20:06.071Z,99805.91
2022-09-26T13:22:34.448Z,99799.59
2022-09-26T13:25:21.824Z,99806.88
2022-09-26T13:28:21.260Z,99809.44
2022-09-26T13:30:54.825Z,99802.91
2022-09-26T13:33:31.310Z,99805.25
2022-09-26T13:36:00.896Z,99810.87
2022-09-26T13:38:34.852Z,99800.56
2022-09-26T13:41:26.933Z,99797.06
2022-09-26T13:44:09.203Z,99798.72
2022-09-26T13:46:48.143Z,99785.84
2022-09-26T13:49:36.780Z,99791.12
2022-09-26T13:52:19.218Z,99792.41
2022-09-26T13:55:02.141Z,99783.03
2022-09-26T13:57:46.839Z,99789.69
2022-09-26T14:00:24.338Z,99789.13
2022-09-26T14:03:10.378Z,99796.97
2022-09-26T14:05:43.662Z,99799.88
2022-09-26T14:08:44.990Z,99796.25
2022-09-26T14:11:27.781Z,99792.75
2022-09-26T14:14:18.351Z,99781.75
2022-09-26T14:16:49.801Z,99796.34
2022-09-26T14:19:46.568Z,99796.03
2022-09-26T14:22:20.556Z,99797.06
2022-09-26T14:24:49.216Z,99788.09
2022-09-26T14:27:15.959Z,99776.84
2022-09-26T14:29:44.532Z,99780.72
2022-09-26T14:32:18.579Z,99773.13
2022-09-26T14:34:57.306Z,99769.81
2022-09-26T14:37:24.257Z,99773.00
2022-09-26T14:40:01.076Z,99750.44
2022-09-26T14:42:34.275Z,99760.72
2022-09-26T14:45:05.095Z,99756.28
2022-09-26T14:47:48.654Z,99755.94
2022-09-26T14:50:20.790Z,99766.91
2022-09-26T14:52:57.988Z,99753.81
2022-09-26T14:55:26.975Z,99751.00
2022-09-26T14:58:37.284Z,99762.69
2022-09-26T15:01:18.025Z,99768.28
2022-09-26T15:04:12.760Z,99756.25
2022-09-26T15:06:46.320Z,99758.47
2022-09-26T15:09:55.653Z,99753.78
2022-09-26T15:12:44.322Z,99757.78
2022-09-26T15:15:43.441Z,99766.50
2022-09-26T15:18:28.579Z,99766.38
2022-09-26T15:21:04.358Z,99758.06
2022-09-26T15:23:34.125Z,99752.69
2022-09-26T15:26:06.088Z,99748.84
2022-09-26T15:28:34.845Z,99747.44
2022-09-26T15:31:28.182Z,99744.56
2022-09-26T15:34:01.981Z,99739.44
2022-09-26T15:36:32.141Z,99736.41
2022-09-26T15:38:59.846Z,99740.59
2022-09-26T15:41:45.514Z,99737.56
2022-09-26T15:44:22.631Z,99737.19
2022-09-26T15:46:50.656Z,99739.50
2022-09-26T15:49:22.603Z,99736.94
2022-09-26T15:51:54.554Z,99740.66
2022-09-26T15:54:28.059Z,99735.16
2022-09-26T15:56:58.677Z,99729.19
2022-09-26T15:59:41.437Z,99737.69
2022-09-26T16:02:24.406Z,99734.66
2022-09-26T16:04:54.822Z,99734.87
2022-09-26T16:07:26.494Z,99730.66
2022-09-26T16:09:56.062Z,99727.81
2022-09-26T16:12:26.509Z,99744.50
2022-09-26T16:14:58.405Z,99738.19
2022-09-26T16:17:35.848Z,99738.19
2022-09-26T16:20:25.669Z,99735.13
2022-09-26T16:23:01.828Z,99726.72
2022-09-26T16:25:52.794Z,99731.72
2022-09-26T16:28:26.127Z,99729.03
2022-09-26T16:30:53.145Z,99724.34
2022-09-26T16:33:32.001Z,99721.03
2022-09-26T16:36:13.315Z,99729.53
2022-09-26T16:38:40.312Z,99731.19
2022-09-26T16:41:56.483Z,99722.56
2022-09-26T16:44:31.909Z,99724.63
2022-09-26T16:47:04.678Z,99719.50
2022-09-26T16:49:47.139Z,99723.66
2022-09-26T16:52:36.567Z,99723.88
2022-09-26T16:55:08.950Z,99716.28
2022-09-26T16:57:39.947Z,99713.25
2022-09-26T17:00:40.208Z,99713.47
2022-09-26T17:03:22.551Z,99710.22
2022-09-26T17:05:50.648Z,99708.19
2022-09-26T17:08:18.531Z,99704.75
2022-09-26T17:10:46.334Z,99704.37
2022-09-26T17:13:22.685Z,99710.84
2022-09-26T17:15:54.724Z,99720.75
2022-09-26T17:18:23.915Z,99704.34
2022-09-26T17:20:50.831Z,99716.25
2022-09-26T17:23:38.743Z,99724.56
2022-09-26T17:26:06.850Z,99728.31
2022-09-26T17:28:40.114Z,99699.41
2022-09-26T17:31:11.999Z,99719.06
2022-09-26T17:33:40.702Z,99717.84
2022-09-26T17:36:16.686Z,99719.72
2022-09-26T17:38:43.830Z,99702.66
2022-09-26T17:41:12.650Z,99704.53
2022-09-26T17:43:41.115Z,99692.38
2022-09-26T17:46:15.208Z,99681.13
2022-09-26T17:48:43.559Z,99688.72
2022-09-26T17:51:13.896Z,99687.34
2022-09-26T17:53:50.127Z,99698.50
2022-09-26T17:56:22.020Z,99688.22
2022-09-26T17:58:49.633Z,99683.34
2022-09-26T18:01:33.681Z,99693.59
2022-09-26T18:04:06.223Z,99694.63
2022-09-26T18:06:33.443Z,99694.84
2022-09-26T18:09:07.711Z,99697.75
2022-09-26T18:11:36.279Z,99695.28
2022-09-26T18:14:06.137Z,99688.91
2022-09-26T18:16:33.072Z,99691.59
2022-09-26T18:19:06.071Z,99678.84
2022-09-26T18:21:34.259Z,99683.19
2022-09-26T18:24:06.466Z,99687.91
2022-09-26T18:26:42.259Z,99676.47
2022-09-26T18:29:13.584Z,99685.75
2022-09-26T18:31:41.570Z,99706.06
2022-09-26T18:34:18.765Z,99710.00
2022-09-26T18:36:46.971Z,99715.34
2022-09-26T18:39:13.754Z,99714.16
2022-09-26T18:41:40.642Z,99718.91
2022-09-26T18:44:16.594Z,99713.97
2022-09-26T18:46:46.235Z,99717.69
2022-09-26T18:49:14.380Z,99728.41
2022-09-26T18:51:41.551Z,99718.19
2022-09-26T18:54:16.544Z,99729.25
2022-09-26T18:57:02.587Z,99724.97
2022-09-26T18:59:32.253Z,99715.72
2022-09-26T19:02:02.040Z,99711.19
2022-09-26T19:04:30.723Z,99702.41
2022-09-26T19:07:01.107Z,99708.94
2022-09-26T19:09:32.847Z,99703.78
2022-09-26T19:12:00.463Z,99690.69
2022-09-26T19:14:29.115Z,99693.97
2022-09-26T19:16:56.695Z,99680.00
2022-09-26T19:19:24.451Z,99671.34
2022-09-26T19:21:53.206Z,99666.41
2022-09-26T19:24:37.968Z,99663.97
2022-09-26T19:27:10.966Z,99649.78
2022-09-26T19:29:43.636Z,99640.16
2022-09-26T19:32:25.551Z,99644.28
2022-09-26T19:34:56.938Z,99640.19
2022-09-26T19:37:23.678Z,99637.56
2022-09-26T19:39:50.653Z,99639.00
2022-09-26T19:42:18.345Z,99627.94
2022-09-26T19:44:45.399Z,99611.06
2022-09-26T19:47:18.270Z,99615.16
2022-09-26T19:49:48.566Z,99614.94
2022-09-26T19:52:18.051Z,99614.72
2022-09-26T19:54:45.453Z,99617.19
2022-09-26T19:57:20.097Z,99601.19
2022-09-26T19:59:48.514Z,99604.87
2022-09-26T20:02:21.109Z,99594.41
2022-09-26T20:04:48.690Z,99601.78
2022-09-26T20:07:19.161Z,99597.94
2022-09-26T20:09:46.402Z,99603.28
2022-09-26T20:12:13.950Z,99608.62
2022-09-26T20:14:40.928Z,99606.97
2022-09-26T20:17:23.230Z,99590.97
2022-09-26T20:19:54.007Z,99590.09
2022-09-26T20:22:24.560Z,99588.91
2022-09-26T20:24:55.403Z,99575.16
2022-09-26T20:27:24.813Z,99579.47
2022-09-26T20:30:11.322Z,99581.72
2022-09-26T20:32:40.718Z,99579.50
2022-09-26T20:35:13.347Z,99586.91
2022-09-26T20:37:40.538Z,99582.00
2022-09-26T20:40:18.082Z,99579.34
2022-09-26T20:42:48.486Z,99596.37
2022-09-26T20:45:18.054Z,99581.16
2022-09-26T20:47:45.107Z,99588.56
2022-09-26T20:50:17.991Z,99579.72
2022-09-26T20:52:45.218Z,99579.72
2022-09-26T20:55:18.016Z,99576.66
2022-09-26T20:57:45.815Z,99558.97
2022-09-26T21:00:20.669Z,99550.78
2022-09-26T21:02:51.673Z,99557.09
2022-09-26T21:05:22.996Z,99548.28
2022-09-26T21:07:51.634Z,99543.72
2022-09-26T21:10:33.002Z,99542.34
2022-09-26T21:13:00.662Z,99538.59
2022-09-26T21:15:30.937Z,99531.03
2022-09-26T21:17:58.244Z,99531.03
2022-09-26T21:20:33.889Z,99535.78
2022-09-26T21:23:01.961Z,99539.47
2022-09-26T21:25:31.297Z,99515.09
2022-09-26T21:28:26.478Z,99531.06
2022-09-26T21:31:00.405Z,99521.19
2022-09-26T21:33:27.159Z,99512.00
2022-09-26T21:35:54.726Z,99504.41
2022-09-26T21:38:22.088Z,99498.28
2022-09-26T21:40:55.420Z,99504.84
2022-09-26T21:43:27.504Z,99492.50
2022-09-26T21:45:54.307Z,99481.81
2022-09-26T21:48:21.352Z,99474.25
2022-09-26T21:50:57.663Z,99490.47
2022-09-26T21:53:33.008Z,99501.16
2022-09-26T21:56:07.393Z,99496.84
2022-09-26T21:58:37.606Z,99481.81
2022-09-26T22:01:04.987Z,99486.38
2022-09-26T22:03:32.200Z,99494.00
2022-09-26T22:06:01.371Z,99491.31
2022-09-26T22:08:30.996Z,99499.13
2022-09-26T22:10:57.971Z,99500.75
2022-09-26T22:13:24.916Z,99492.13
2022-09-26T22:15:51.649Z,99495.63
2022-09-26T22:18:18.662Z,99484.97
2022-09-26T22:20:45.324Z,99498.50
2022-09-26T22:23:12.036Z,99481.50
2022-09-26T22:25:42.800Z,99488.88
2022-09-26T22:28:09.659Z,99476.31
2022-09-26T22:30:39.408Z,99477.34
2022-09-26T22:33:06.468Z,99479.03
2022-09-26T22:35:33.081Z,99472.44
2022-09-26T22:37:59.711Z,99463.44
2022-09-26T22:40:26.785Z,99475.09
2022-09-26T22:42:53.408Z,99468.94
2022-09-26T22:45:20.527Z,99472.44
2022-09-26T22:47:47.467Z,99458.50
2022-09-26T22:50:14.889Z,99464.41
2022-09-26T22:52:41.604Z,99460.94
2022-09-26T22:55:08.806Z,99452.94
2022-09-26T22:57:35.791Z,99456.03
2022-09-26T23:00:03.771Z,99471.03
2022-09-26T23:02:30.954Z,99463.00
2022-09-26T23:04:57.896Z,99463.00
2022-09-26T23:07:24.616Z,99464.62
2022-09-26T23:09:51.817Z,99469.16
2022-09-26T23:12:19.115Z,99465.47
2022-09-26T23:14:45.896Z,99469.97
2022-09-26T23:17:13.197Z,99471.62
2022-09-26T23:19:40.250Z,99460.72
2022-09-26T23:22:06.872Z,99455.59
2022-09-26T23:24:33.763Z,99455.59
2022-09-26T23:27:00.362Z,99441.44
2022-09-26T23:29:26.984Z,99446.97
2022-09-26T23:31:54.002Z,99433.00
2022-09-26T23:34:20.960Z,99438.78
2022-09-26T23:36:47.762Z,99442.88
2022-09-26T23:39:14.820Z,99428.09
2022-09-26T23:41:41.687Z,99419.50
2022-09-26T23:44:08.468Z,99430.19
2022-09-26T23:46:35.546Z,99421.97
2022-09-26T23:49:02.247Z,99432.44
2022-09-26T23:51:28.961Z,99436.97
2022-09-26T23:53:55.868Z,99442.91
2022-09-26T23:56:22.511Z,99432.66
2022-09-26T23:58:49.310Z,99427.09
